• Join FlightAware (Why Join?)
  • Login
  • US Flag 
12:17PM EDT


 

Airport Tracker/Info


-or-


 

Live Flight TrackerFlight Track Log ✈ EXS432 ✈ 27-May-2012 ✈ LHBP / BUD - EGNM / LBA

Flight Track Log - Related Links

Times and Time Zones

All times are in EDT time to prevent confusion due to time zone crossing. See the EXS432 flight status page for this flight to view local times or setup timezone preferences in your user account.

Time Position Orientation Groundspeed Altitude Reporting Facility
EDT Latitude Longitude Course Direction KTS MPH feet Rate Location/Type
02:37PM 48.1939 17.5262 302° West  Level Estimated
02:38PM 48.2340 17.4314 302° West  Level Estimated
02:39PM 48.2917 17.2946 301° West  Level Estimated
02:40PM 48.3492 17.1575 301° West  Level Estimated
02:41PM 48.4065 17.0200 301° West  Level Estimated
02:42PM 48.4637 16.8823 301° West  Level Estimated
02:43PM 48.5207 16.7442 301° West  Level Estimated
02:44PM 48.5775 16.6059 301° West  Level Estimated
02:45PM 48.6342 16.4672 301° West  Level Estimated
02:46PM 48.6907 16.3282 301° West  Level Estimated
02:47PM 48.7470 16.1889 301° West  Level Estimated
02:48PM 48.8032 16.0493 300° West  Level Estimated
02:49PM 48.8592 15.9094 300° West  Level Estimated
02:50PM 48.8979 15.8121 300° West  Level Estimated
02:51PM 48.9366 15.7147 300° West  Level Estimated
02:52PM 48.9752 15.6171 300° West  Level Estimated
02:53PM 49.0137 15.5194 300° West  Level Estimated
02:54PM 49.0690 15.3782 300° West  Level Estimated
02:55PM 49.1242 15.2368 300° West  Level Estimated
02:56PM 49.1792 15.0951 300° West  Level Estimated
02:57PM 49.2341 14.9530 300° West  Level Estimated
02:58PM 49.2887 14.8107 299° West  Level Estimated
02:59PM 49.3432 14.6680 299° West  Level Estimated
03:00PM 49.3975 14.5250 299° West  Level Estimated
03:01PM 49.4516 14.3817 299° West  Level Estimated
03:02PM 49.5056 14.2380 299° West  Level Estimated
03:03PM 49.5594 14.0941 299° West  Level Estimated
03:04PM 49.6130 13.9498 299° West  Level Estimated
03:05PM 49.6664 13.8052 299° West  Level Estimated
03:06PM 49.7196 13.6603 298° West  Level Estimated
03:07PM 49.7727 13.5151 298° West  Level Estimated
03:08PM 49.8094 13.4142 298° West  Level Estimated
03:09PM 49.8460 13.3131 298° West  Level Estimated
03:10PM 49.8825 13.2118 298° West  Level Estimated
03:11PM 49.9190 13.1104 298° West  Level Estimated
03:12PM 49.9553 13.0088 298° West  Level Estimated
03:13PM 50.0075 12.8622 298° West  Level Estimated
03:14PM 50.0596 12.7152 298° West  Level Estimated
03:15PM 50.1115 12.5680 297° West  Level Estimated
03:16PM 50.1631 12.4204 297° West  Level Estimated
03:17PM 50.2146 12.2725 297° West  Level Estimated
03:18PM 50.2659 12.1242 297° West  Level Estimated
03:19PM 50.3170 11.9757 297° West  Level Estimated
03:20PM 50.3680 11.8268 297° West  Level Estimated
03:21PM 50.4187 11.6776 297° West  Level Estimated
03:22PM 50.4692 11.5281 297° West  Level Estimated
03:23PM 50.5196 11.3783 296° West  Level Estimated
03:24PM 50.5697 11.2281 296° West  Level Estimated
03:25PM 50.6197 11.0777 296° West  Level Estimated
03:26PM 50.6543 10.9731 296° West  Level Estimated
03:27PM 50.6887 10.8683 296° West  Level Estimated
03:28PM 50.7231 10.7634 296° West  Level Estimated
03:29PM 50.7574 10.6584 296° West  Level Estimated
03:30PM 50.7915 10.5532 296° West  Level Estimated
03:31PM 50.8256 10.4478 295° West  Level Estimated
03:32PM 50.8596 10.3423 295° West  Level Estimated
03:33PM 50.8935 10.2366 295° West  Level Estimated
03:34PM 50.9273 10.1308 295° West  Level Estimated
03:35PM 50.9610 10.0248 295° West  Level Estimated
03:36PM 50.9946 9.9187 295° West  Level Estimated
03:37PM 51.0281 9.8124 295° West  Level Estimated
03:38PM 51.0615 9.7060 295° West  Level Estimated
03:39PM 51.0948 9.5994 295° West  Level Estimated
03:40PM 51.1281 9.4926 295° West  Level Estimated
03:41PM 51.1612 9.3857 294° West  Level Estimated
03:42PM 51.2087 9.2314 294° West  Level Estimated
03:43PM 51.2561 9.0767 294° West  Level Estimated
03:44PM 51.3032 8.9218 294° West  Level Estimated
03:45PM 51.3502 8.7665 294° West  Level Estimated
03:46PM 51.3969 8.6109 294° West  Level Estimated
03:47PM 51.4435 8.4550 293° West  Level Estimated
03:48PM 51.4898 8.2987 293° West  Level Estimated
03:49PM 51.5359 8.1422 293° West  Level Estimated
03:50PM 51.5818 7.9853 293° West  Level Estimated
03:51PM 51.6275 7.8281 293° West  Level Estimated
03:52PM 51.6591 7.7189 293° West  Level Estimated
03:53PM 51.6906 7.6095 292° West  Level Estimated
03:54PM 51.7220 7.4999 292° West  Level Estimated
03:55PM 51.7533 7.3902 292° West  Level Estimated
03:56PM 51.7845 7.2803 292° West  Level Estimated
03:57PM 51.8292 7.1217 292° West  Level Estimated
03:58PM 51.8738 6.9628 292° West  Level Estimated
03:59PM 51.9181 6.8036 291° West  Level Estimated
04:00PM 51.9622 6.6441 291° West  Level Estimated
04:01PM 52.0061 6.4842 291° West  Level Estimated
04:02PM 52.0498 6.3240 291° West  Level Estimated
04:03PM 52.0933 6.1636 290° West  Level Estimated
04:04PM 52.8973 2.2678 287° West 430 495 34,000  Level FlightAware ADS-B
04:05PM 52.9379 2.0419 287° West 430 495 34,000  Level FlightAware ADS-B
04:06PM 52.9599 1.9190 287° West 430 495 34,000  Level FlightAware ADS-B
04:07PM 52.9769 1.8239 287° West 428 493 34,000  Level FlightAware ADS-B
04:07PM 52.9941 1.7272 287° West 428 493 34,000  Level FlightAware ADS-B
04:08PM 53.0125 1.6239 286° West 428 493 34,000  Level FlightAware ADS-B
04:08PM 53.0313 1.5168 286° West 429 494 34,000  Level FlightAware ADS-B
04:09PM 53.0511 1.4031 286° West 429 494 34,000  Level FlightAware ADS-B
04:09PM 53.0686 1.3029 286° West 430 495 34,000  Level FlightAware ADS-B
04:10PM 53.0856 1.2052 286° West 430 495 34,000  Level FlightAware ADS-B
04:10PM 53.0997 1.1229 286° West 429 494 34,000  Level FlightAware ADS-B
04:11PM 53.1161 1.0262 286° West 430 495 34,000  Level FlightAware ADS-B
04:11PM 53.1340 0.9224 286° West 431 496 34,000  Level FlightAware ADS-B
04:12PM 53.1505 0.8270 286° West 432 497 34,000  Level FlightAware ADS-B
04:12PM 53.1673 0.7304 286° West 432 497 34,000  Level FlightAware ADS-B
04:13PM 53.1862 0.6222 286° West 433 498 34,000  Level FlightAware ADS-B
04:13PM 53.1949 0.5723 286° West 433 498 34,000 -600 Level FlightAware ADS-B
04:14PM 53.2090 0.4920 286° West 435 501 33,600 -2,400 Descending FlightAware ADS-B
04:14PM 53.2293 0.3764 286° West 431 496 32,200 -2,460 Descending FlightAware ADS-B
04:15PM 53.2466 0.2780 287° West 424 488 31,000 -2,340 Descending FlightAware ADS-B
04:15PM 53.2636 0.1833 287° West 417 480 29,800 -2,340 Descending FlightAware ADS-B
04:16PM 53.2802 0.0918 287° West 410 472 28,700 -1,740 Descending FlightAware ADS-B
04:16PM 53.2983 -0.0079 289° West 396 456 28,000 -1,080 Descending FlightAware ADS-B
04:16PM 53.3024 -0.0276 295° West 394 453 28,000 -180 Level FlightAware ADS-B
04:17PM 53.3266 -0.1136 295° West 390 449 27,900 -1,200 Descending FlightAware ADS-B
04:17PM 53.3508 -0.1992 295° West 385 443 26,800 -2,040 Descending FlightAware ADS-B
04:18PM 53.3734 -0.2793 296° West 379 436 25,800 -1,980 Descending FlightAware ADS-B
04:19PM 53.4055 -0.3916 296° West 376 433 24,400 -2,040 Descending FlightAware ADS-B
04:19PM 53.4310 -0.4807 295° West 367 422 23,200 -2,040 Descending FlightAware ADS-B
04:20PM 53.4830 -0.6659 303° West 357 411 20,800 -1,980 Descending FlightAware ADS-B
04:28PM 53.9276 -1.8247 122° Southeast  Level Estimated
04:29PM 53.8697 -1.6705 123° Southeast  Level Estimated
04:30PM 53.8114 -1.5168 303° West  Level Estimated
04:31PM 53.8697 -1.6705 123° Southeast  Level Estimated
04:32PM 53.8114 -1.5168 303° West  Level Estimated
04:33PM 53.8697 -1.6705 123° Southeast  Level Estimated
04:34PM 53.8114 -1.5168 303° West  Level Estimated
04:35PM 53.8697 -1.6705 123° Southeast  Level Estimated
04:36PM 53.8114 -1.5168 303° West  Level Estimated
04:37PM 53.8697 -1.6705 123° Southeast  Level Estimated
04:38PM 53.8114 -1.5168 303° West  Level Estimated
04:39PM 53.8697 -1.6705 303° West  Level Estimated